首页
METAR-TAF:

METAR-TAF

机场 :

Massena, 紐約州, 美国

纬度: 44-56-09N, 经度: 074-50-44W, 海拔: 66米

当前天气观测

该预报发布于1小时和16分钟前的15:53 UTC
风速12节,风向北转西北,有时为19节阵风
温度 17°C
湿度 94%
气压 1006 hPa
能見度: 16.1公里
多云层高于8000英尺
阴天层高于9000英尺
小雨

METAR: KMSS 241553Z AUTO 33012G19KT 10SM -RA BKN080 OVC090 17/16 A2970 RMK AO2 SLP055 P0000 T01720161

时间: 13:09 (17:09 UTC)

预报

该预报发布于57分钟前的16:12 UTC
预报有效从24日的 16点(UTC)到 25日的 12点(UTC)
风速12节,风向北转西北,有时为19节阵风
能見度: 10公里
多云层高于8000英尺
阴天层高于9000英尺
小阵雨
从 24日的 1900点(UTC)
风速8节,风向,有时为15节阵风
能見度: 10公里
多云层高于3500英尺
附近有阵雨
从 25日的 0000点(UTC)
风速5节,风向西转西南
能見度: 10公里
散云层高于25000英尺

TAF: KMSS 241612Z 2416/2512 33012G19KT P6SM -SHRA BKN080 OVC090 FM241900 35008G15KT P6SM VCSH BKN035 FM250000 25005KT P6SM SCT250

超过4000个机场的气象观测和天气预报(METAR&TAF报告)。

可查询的气象台以黄色和红色小点在地图上表示。

将鼠标移到小点上方,可查看气象台名称。

然后点击查看天气观测和预报。

如需切换地图:点击带黑十字的绿色按钮放大地图;点击带横线的绿色按钮缩小地图;或者点击绿色箭头查看邻近地区的地图。


METAR-TAF: